createdAt,value
2023-02-18T00:01:27.311Z,92.63
2023-02-18T00:05:24.144Z,92.87
2023-02-18T00:08:52.021Z,92.68
2023-02-18T00:12:44.022Z,91.70
2023-02-18T00:16:11.102Z,91.32
2023-02-18T00:19:44.624Z,91.42
2023-02-18T00:23:22.050Z,90.92
2023-02-18T00:27:06.338Z,90.15
2023-02-18T00:30:43.495Z,88.62
2023-02-18T00:34:34.155Z,86.44
2023-02-18T00:37:58.538Z,84.70
2023-02-18T00:41:55.729Z,83.37
2023-02-18T00:45:36.454Z,82.21
2023-02-18T00:48:59.529Z,81.26
2023-02-18T00:52:37.609Z,79.33
2023-02-18T00:56:35.470Z,77.52
2023-02-18T01:00:19.084Z,77.16
2023-02-18T01:03:42.994Z,76.98
2023-02-18T01:07:24.706Z,75.91
2023-02-18T01:11:00.703Z,75.70
2023-02-18T01:14:54.487Z,74.85
2023-02-18T01:18:17.995Z,74.33
2023-02-18T01:22:13.417Z,74.04
2023-02-18T01:25:38.073Z,75.03
2023-02-18T01:29:33.909Z,75.15
2023-02-18T01:33:15.906Z,74.90
2023-02-18T01:36:38.212Z,74.16
2023-02-18T01:40:44.881Z,73.88
2023-02-18T01:44:15.697Z,75.08
2023-02-18T01:47:48.216Z,75.65
2023-02-18T01:51:25.280Z,75.72
2023-02-18T01:55:22.039Z,75.96
2023-02-18T01:58:45.278Z,74.96
2023-02-18T02:02:45.401Z,75.05
2023-02-18T02:06:27.196Z,74.31
2023-02-18T02:09:52.854Z,74.47
2023-02-18T02:14:08.035Z,73.81
2023-02-18T02:17:52.145Z,74.25
2023-02-18T02:21:32.936Z,74.45
2023-02-18T02:25:44.185Z,74.83
2023-02-18T02:30:18.309Z,75.08
2023-02-18T02:34:35.135Z,74.96
2023-02-18T02:38:41.803Z,74.74
2023-02-18T02:42:28.127Z,74.32
2023-02-18T02:46:18.925Z,73.60
2023-02-18T02:50:02.626Z,73.55
2023-02-18T02:53:32.901Z,72.51
2023-02-18T02:57:13.601Z,71.82
2023-02-18T03:01:31.306Z,71.28
2023-02-18T03:05:30.878Z,70.69
2023-02-18T03:09:27.831Z,70.14
2023-02-18T03:13:35.506Z,69.60
2023-02-18T03:17:12.614Z,69.32
2023-02-18T03:20:42.083Z,69.10
2023-02-18T03:24:43.212Z,68.82
2023-02-18T03:28:31.765Z,68.24
2023-02-18T03:32:20.825Z,67.56
2023-02-18T03:36:03.506Z,67.30
2023-02-18T03:39:30.788Z,67.33
2023-02-18T03:43:24.395Z,67.66
2023-02-18T03:47:07.636Z,68.16
2023-02-18T03:50:48.843Z,68.54
2023-02-18T03:54:11.455Z,69.28
2023-02-18T03:57:48.726Z,70.14
2023-02-18T04:01:27.222Z,70.44
2023-02-18T04:05:04.464Z,70.84
2023-02-18T04:08:41.881Z,70.56
2023-02-18T04:12:38.492Z,70.42
2023-02-18T04:16:22.124Z,70.67
2023-02-18T04:19:45.709Z,69.51
2023-02-18T04:23:23.046Z,69.56
2023-02-18T04:27:03.245Z,68.78
2023-02-18T04:30:59.989Z,68.25
2023-02-18T04:34:23.061Z,66.88
2023-02-18T04:38:00.132Z,66.60
2023-02-18T04:41:37.699Z,65.50
2023-02-18T04:45:35.024Z,65.11
2023-02-18T04:49:16.444Z,65.03
2023-02-18T04:52:38.355Z,64.70
2023-02-18T04:56:16.401Z,63.53
2023-02-18T05:00:15.780Z,63.71
2023-02-18T05:03:38.799Z,63.82
2023-02-18T05:07:18.621Z,63.36
2023-02-18T05:11:12.524Z,63.27
2023-02-18T05:14:34.716Z,63.35
2023-02-18T05:18:31.106Z,63.88
2023-02-18T05:22:12.197Z,63.76
2023-02-18T05:25:34.629Z,63.28
2023-02-18T05:29:12.343Z,63.66
2023-02-18T05:33:11.565Z,63.78
2023-02-18T05:36:53.382Z,63.73
2023-02-18T05:40:37.765Z,63.37
2023-02-18T05:44:32.944Z,63.57
2023-02-18T05:47:58.159Z,63.23
2023-02-18T05:51:54.775Z,63.86
2023-02-18T05:55:40.065Z,62.77
2023-02-18T05:59:05.390Z,63.45
2023-02-18T06:03:03.392Z,63.06
2023-02-18T06:06:25.617Z,63.06
2023-02-18T06:10:05.080Z,62.95
2023-02-18T06:14:01.890Z,62.68
2023-02-18T06:17:24.329Z,62.57
2023-02-18T06:21:03.482Z,61.84
2023-02-18T06:24:41.399Z,62.01
2023-02-18T06:28:18.014Z,60.39
2023-02-18T06:32:14.069Z,60.80
2023-02-18T06:35:57.934Z,60.66
2023-02-18T06:39:20.150Z,60.91
2023-02-18T06:43:17.745Z,61.26
2023-02-18T06:46:59.133Z,61.12
2023-02-18T06:50:42.912Z,60.56
2023-02-18T06:54:25.120Z,60.74
2023-02-18T06:58:06.494Z,60.21
2023-02-18T07:01:29.382Z,59.72
2023-02-18T07:05:07.212Z,59.51
2023-02-18T07:09:04.646Z,59.70
2023-02-18T07:12:45.823Z,59.62
2023-02-18T07:16:08.535Z,59.83
2023-02-18T07:19:45.833Z,59.67
2023-02-18T07:23:42.292Z,59.22
2023-02-18T07:27:25.218Z,59.08
2023-02-18T07:31:08.345Z,59.00
2023-02-18T07:34:32.273Z,59.09
2023-02-18T07:38:09.930Z,59.00
2023-02-18T07:41:48.512Z,58.42
2023-02-18T07:45:25.529Z,58.02
2023-02-18T07:49:02.765Z,57.72
2023-02-18T07:52:59.360Z,58.33
2023-02-18T07:56:21.897Z,57.68
2023-02-18T08:00:18.874Z,57.40
2023-02-18T08:03:59.961Z,57.19
2023-02-18T08:07:40.778Z,56.31
2023-02-18T08:11:13.254Z,56.76
2023-02-18T08:14:41.713Z,56.26
2023-02-18T08:18:21.345Z,56.16
2023-02-18T08:22:14.695Z,56.25
2023-02-18T08:25:55.495Z,55.81
2023-02-18T08:29:17.749Z,55.34
2023-02-18T08:33:15.456Z,55.80
2023-02-18T08:36:40.988Z,55.69
2023-02-18T08:40:35.632Z,55.67
2023-02-18T08:43:58.216Z,55.34
2023-02-18T08:48:19.426Z,55.12
2023-02-18T08:51:39.607Z,54.65
2023-02-18T08:55:20.719Z,55.27
2023-02-18T08:58:44.835Z,54.64
2023-02-18T09:02:40.605Z,54.55
2023-02-18T09:06:04.049Z,54.64
2023-02-18T09:09:43.021Z,55.02
2023-02-18T09:13:39.359Z,54.82
2023-02-18T09:17:01.320Z,54.55
2023-02-18T09:21:01.907Z,54.40
2023-02-18T09:24:27.862Z,54.62
2023-02-18T09:28:04.764Z,54.40
2023-02-18T09:31:41.002Z,55.05
2023-02-18T09:35:42.474Z,54.28
2023-02-18T09:39:06.090Z,54.05
2023-02-18T09:42:42.449Z,54.63
2023-02-18T09:46:26.026Z,54.32
2023-02-18T09:50:23.404Z,54.51
2023-02-18T09:53:47.227Z,54.90
2023-02-18T09:57:47.918Z,54.04
2023-02-18T10:01:37.302Z,54.12
2023-02-18T10:04:59.741Z,54.77
2023-02-18T10:08:43.101Z,54.58
2023-02-18T10:12:19.241Z,54.32
2023-02-18T10:16:17.646Z,53.88
2023-02-18T10:19:41.358Z,53.81
2023-02-18T10:23:23.693Z,54.10
2023-02-18T10:27:24.096Z,54.31
2023-02-18T10:31:10.399Z,53.98
2023-02-18T10:34:41.499Z,54.29
2023-02-18T10:38:13.556Z,54.14
2023-02-18T10:42:13.715Z,53.95
2023-02-18T10:45:49.124Z,54.65
2023-02-18T10:49:57.924Z,54.28
2023-02-18T10:53:43.279Z,54.56
2023-02-18T10:57:25.926Z,54.18
2023-02-18T11:01:15.093Z,54.38
2023-02-18T11:04:59.334Z,54.31
2023-02-18T11:08:25.694Z,54.86
2023-02-18T11:12:08.979Z,55.80
2023-02-18T11:15:38.623Z,57.30
2023-02-18T11:19:40.200Z,59.16
2023-02-18T11:23:07.946Z,61.05
2023-02-18T11:26:41.624Z,63.07
2023-02-18T11:30:49.261Z,65.26
2023-02-18T11:34:36.186Z,66.90
2023-02-18T11:38:33.883Z,68.31
2023-02-18T11:42:05.337Z,68.91
2023-02-18T11:46:19.498Z,69.35
2023-02-18T11:49:58.559Z,71.05
2023-02-18T11:53:37.906Z,71.27
2023-02-18T11:57:06.828Z,72.16
2023-02-18T12:00:46.458Z,72.59
2023-02-18T12:04:19.233Z,73.57
2023-02-18T12:08:09.438Z,73.64
2023-02-18T12:11:46.473Z,73.66
2023-02-18T12:15:39.686Z,73.75
2023-02-18T12:19:37.536Z,73.81
2023-02-18T12:23:35.595Z,74.18
2023-02-18T12:27:34.277Z,74.31
2023-02-18T12:31:12.326Z,74.78
2023-02-18T12:35:26.714Z,74.56
2023-02-18T12:39:12.720Z,74.84
2023-02-18T12:42:51.094Z,74.46
2023-02-18T12:47:02.497Z,74.91
2023-02-18T12:50:53.218Z,75.12
2023-02-18T12:54:52.597Z,75.38
2023-02-18T12:58:37.477Z,75.36
2023-02-18T13:02:09.915Z,75.15
2023-02-18T13:05:48.983Z,75.35
2023-02-18T13:10:13.384Z,75.13
2023-02-18T13:13:44.096Z,75.76
2023-02-18T13:17:36.961Z,76.35
2023-02-18T13:21:05.815Z,77.26
2023-02-18T13:24:40.378Z,77.13
2023-02-18T13:28:29.592Z,77.20
2023-02-18T13:32:13.016Z,77.62
2023-02-18T13:36:04.280Z,77.93
2023-02-18T13:39:49.916Z,78.51
2023-02-18T13:43:33.540Z,78.76
2023-02-18T13:46:58.985Z,78.79
2023-02-18T13:50:42.040Z,79.26
2023-02-18T13:54:11.289Z,79.23
2023-02-18T13:57:53.811Z,79.22
2023-02-18T14:01:48.347Z,79.28
2023-02-18T14:05:21.257Z,78.99
2023-02-18T14:09:14.474Z,79.31
2023-02-18T14:12:41.420Z,79.44
2023-02-18T14:17:29.209Z,79.87
2023-02-18T14:20:52.620Z,80.06
2023-02-18T14:24:56.357Z,80.60
2023-02-18T14:28:46.372Z,80.89
2023-02-18T14:32:29.270Z,80.65
2023-02-18T14:36:38.984Z,80.78
2023-02-18T14:40:20.384Z,81.51
2023-02-18T14:44:25.635Z,80.96
2023-02-18T14:47:53.832Z,81.01
2023-02-18T14:51:29.674Z,81.50
2023-02-18T14:55:27.000Z,81.62
2023-02-18T14:59:10.938Z,82.12
2023-02-18T15:02:54.350Z,81.94
2023-02-18T15:06:32.341Z,82.67
2023-02-18T15:10:15.484Z,82.93
2023-02-18T15:13:44.494Z,82.79
2023-02-18T15:17:24.727Z,83.45
2023-02-18T15:20:53.620Z,83.90
2023-02-18T15:24:53.100Z,83.89
2023-02-18T15:28:35.810Z,84.50
2023-02-18T15:32:24.499Z,84.66
2023-02-18T15:36:13.810Z,84.55
2023-02-18T15:39:55.472Z,84.99
2023-02-18T15:43:23.671Z,85.15
2023-02-18T15:46:55.962Z,85.19
2023-02-18T15:50:56.908Z,85.48
2023-02-18T15:54:41.829Z,86.08
2023-02-18T15:58:30.668Z,86.31
2023-02-18T16:01:57.571Z,86.68
2023-02-18T16:06:08.998Z,87.27
2023-02-18T16:09:35.121Z,87.75
2023-02-18T16:13:33.434Z,87.75
2023-02-18T16:17:07.493Z,88.02
2023-02-18T16:20:56.542Z,88.53
2023-02-18T16:24:33.159Z,88.60
2023-02-18T16:28:31.312Z,89.11
2023-02-18T16:32:12.832Z,88.98
2023-02-18T16:35:49.086Z,89.44
2023-02-18T16:39:14.017Z,89.65
2023-02-18T16:42:52.458Z,89.51
2023-02-18T16:46:31.973Z,89.78
2023-02-18T16:50:31.273Z,90.61
2023-02-18T16:53:57.522Z,91.66
2023-02-18T16:57:31.564Z,92.23
2023-02-18T17:01:34.716Z,92.41
2023-02-18T17:05:27.623Z,91.97
2023-02-18T17:08:50.927Z,91.86
2023-02-18T17:12:29.442Z,92.18
2023-02-18T17:16:10.388Z,92.45
2023-02-18T17:19:43.241Z,92.91
2023-02-18T17:23:40.531Z,93.11
2023-02-18T17:27:21.683Z,93.34
2023-02-18T17:30:43.561Z,93.35
2023-02-18T17:34:40.640Z,93.24
2023-02-18T17:38:22.916Z,93.76
2023-02-18T17:41:45.438Z,93.73
2023-02-18T17:45:34.990Z,93.76
2023-02-18T17:49:03.071Z,93.94
2023-02-18T17:52:58.821Z,94.03
2023-02-18T17:56:42.954Z,94.16
2023-02-18T18:00:27.342Z,94.53
2023-02-18T18:03:52.001Z,95.29
2023-02-18T18:07:49.770Z,95.18
2023-02-18T18:11:16.784Z,95.08
2023-02-18T18:14:49.399Z,95.32
2023-02-18T18:18:46.228Z,95.29
2023-02-18T18:22:08.446Z,95.21
2023-02-18T18:25:49.450Z,95.25
2023-02-18T18:29:43.154Z,95.34
2023-02-18T18:33:16.176Z,95.22
2023-02-18T18:36:45.777Z,95.44
2023-02-18T18:40:26.608Z,95.40
2023-02-18T18:44:18.854Z,95.62
2023-02-18T18:48:00.526Z,95.55
2023-02-18T18:51:29.075Z,95.36
2023-02-18T18:55:19.513Z,95.33
2023-02-18T18:58:42.285Z,95.17
2023-02-18T19:02:20.054Z,95.08
2023-02-18T19:06:16.431Z,94.98
2023-02-18T19:09:38.420Z,94.94
2023-02-18T19:13:25.484Z,95.06
2023-02-18T19:17:12.949Z,95.32
2023-02-18T19:20:36.673Z,95.50
2023-02-18T19:24:33.748Z,95.65
2023-02-18T19:28:02.624Z,95.88
2023-02-18T19:31:38.805Z,95.91
2023-02-18T19:35:16.372Z,95.72
2023-02-18T19:38:55.173Z,95.66
2023-02-18T19:42:31.887Z,95.97
2023-02-18T19:46:28.313Z,95.88
2023-02-18T19:49:51.249Z,95.92
2023-02-18T19:53:28.041Z,96.11
2023-02-18T19:57:24.874Z,96.14
2023-02-18T20:00:47.104Z,96.20
2023-02-18T20:04:25.470Z,96.29
2023-02-18T20:08:02.804Z,96.30
2023-02-18T20:11:40.395Z,96.46
2023-02-18T20:15:18.192Z,96.38
2023-02-18T20:19:16.753Z,96.60
2023-02-18T20:22:39.476Z,96.50
2023-02-18T20:26:17.344Z,96.32
2023-02-18T20:30:15.514Z,96.27
2023-02-18T20:33:40.073Z,96.23
2023-02-18T20:37:35.657Z,96.37
2023-02-18T20:41:11.700Z,96.57
2023-02-18T20:44:55.137Z,96.81
2023-02-18T20:48:16.954Z,96.70
2023-02-18T20:52:15.456Z,96.48
2023-02-18T20:55:56.407Z,96.27
2023-02-18T20:59:37.614Z,96.14
2023-02-18T21:03:18.869Z,95.96
2023-02-18T21:06:41.643Z,95.81
2023-02-18T21:10:21.318Z,95.46
2023-02-18T21:14:16.173Z,95.18
2023-02-18T21:17:38.123Z,94.95
2023-02-18T21:21:37.821Z,95.00
2023-02-18T21:25:19.041Z,94.43
2023-02-18T21:28:51.556Z,94.39
2023-02-18T21:32:39.360Z,94.73
2023-02-18T21:36:21.871Z,94.81
2023-02-18T21:40:03.189Z,94.89
2023-02-18T21:43:26.601Z,94.95
2023-02-18T21:47:22.233Z,95.05
2023-02-18T21:50:44.336Z,95.16
2023-02-18T21:54:47.484Z,95.17
2023-02-18T21:58:14.016Z,95.03
2023-02-18T22:01:49.116Z,95.12
2023-02-18T22:05:29.346Z,94.78
2023-02-18T22:09:05.670Z,94.60
2023-02-18T22:12:43.715Z,94.28
2023-02-18T22:16:20.089Z,93.95
2023-02-18T22:20:16.484Z,94.11
2023-02-18T22:23:57.770Z,93.94
2023-02-18T22:27:38.941Z,93.60
2023-02-18T22:31:06.121Z,93.66
2023-02-18T22:34:39.422Z,93.62
2023-02-18T22:38:37.193Z,93.77
2023-02-18T22:41:59.837Z,93.84
2023-02-18T22:45:56.419Z,93.75
2023-02-18T22:49:19.264Z,93.75
2023-02-18T22:52:56.712Z,93.86
2023-02-18T22:56:57.005Z,93.88
2023-02-18T23:00:24.323Z,93.56
2023-02-18T23:04:03.011Z,93.27
2023-02-18T23:07:54.473Z,93.43
2023-02-18T23:11:38.490Z,93.38
2023-02-18T23:15:21.037Z,93.41
2023-02-18T23:19:03.421Z,93.27
2023-02-18T23:22:34.550Z,92.95
2023-02-18T23:26:04.102Z,92.99
2023-02-18T23:29:41.705Z,92.89
2023-02-18T23:33:20.395Z,93.02
2023-02-18T23:37:15.232Z,93.06
2023-02-18T23:40:58.949Z,93.06
2023-02-18T23:44:23.607Z,93.05
2023-02-18T23:48:00.473Z,92.99
2023-02-18T23:51:56.878Z,92.86
2023-02-18T23:55:38.461Z,92.78
2023-02-18T23:59:05.091Z,92.87
